sensor_id;sensor_type;location;lat;lon;timestamp;pressure;altitude;pressure_sealevel;temperature;humidity
19259;BME280;9763;48.780;9.212;2022-12-18T00:01:16;99549.00;;;-3.15;68.21
19259;BME280;9763;48.780;9.212;2022-12-18T00:04:40;99532.75;;;-3.25;67.99
19259;BME280;9763;48.780;9.212;2022-12-18T00:08:05;99554.91;;;-3.19;67.98
19259;BME280;9763;48.780;9.212;2022-12-18T00:11:31;99548.94;;;-3.21;68.18
19259;BME280;9763;48.780;9.212;2022-12-18T00:14:55;99542.97;;;-3.23;68.02
19259;BME280;9763;48.780;9.212;2022-12-18T00:18:18;99545.53;;;-3.23;68.41
19259;BME280;9763;48.780;9.212;2022-12-18T00:21:43;99560.88;;;-3.20;68.29
19259;BME280;9763;48.780;9.212;2022-12-18T00:25:08;99554.91;;;-3.21;68.07
19259;BME280;9763;48.780;9.212;2022-12-18T00:28:33;99548.06;;;-3.23;67.96
19259;BME280;9763;48.780;9.212;2022-12-18T00:31:56;99550.59;;;-3.25;68.01
19259;BME280;9763;48.780;9.212;2022-12-18T00:35:20;99552.31;;;-3.27;67.80
19259;BME280;9763;48.780;9.212;2022-12-18T00:38:44;99562.53;;;-3.24;67.89
19259;BME280;9763;48.780;9.212;2022-12-18T00:42:10;99559.97;;;-3.27;68.07
19259;BME280;9763;48.780;9.212;2022-12-18T00:45:51;99569.34;;;-3.26;67.96
19259;BME280;9763;48.780;9.212;2022-12-18T00:49:17;99553.16;;;-3.28;67.92
19259;BME280;9763;48.780;9.212;2022-12-18T00:52:41;99541.16;;;-3.35;67.94
19259;BME280;9763;48.780;9.212;2022-12-18T00:56:06;99558.22;;;-3.31;67.67
19259;BME280;9763;48.780;9.212;2022-12-18T00:59:31;99553.97;;;-3.31;67.80
19259;BME280;9763;48.780;9.212;2022-12-18T01:02:54;99553.13;;;-3.31;67.64
19259;BME280;9763;48.780;9.212;2022-12-18T01:06:19;99556.50;;;-3.34;67.99
19259;BME280;9763;48.780;9.212;2022-12-18T01:09:43;99548.84;;;-3.32;67.87
19259;BME280;9763;48.780;9.212;2022-12-18T01:13:06;99545.47;;;-3.30;68.21
19259;BME280;9763;48.780;9.212;2022-12-18T01:16:31;99543.78;;;-3.31;68.16
19259;BME280;9763;48.780;9.212;2022-12-18T01:19:55;99558.22;;;-3.31;67.99
19259;BME280;9763;48.780;9.212;2022-12-18T01:23:18;99556.53;;;-3.31;68.23
19259;BME280;9763;48.780;9.212;2022-12-18T01:26:42;99560.78;;;-3.30;68.13
19259;BME280;9763;48.780;9.212;2022-12-18T01:30:07;99559.06;;;-3.31;68.49
19259;BME280;9763;48.780;9.212;2022-12-18T01:33:32;99561.66;;;-3.28;68.66
19259;BME280;9763;48.780;9.212;2022-12-18T01:36:56;99558.25;;;-3.25;68.23
19259;BME280;9763;48.780;9.212;2022-12-18T01:40:21;99554.00;;;-3.28;68.43
19259;BME280;9763;48.780;9.212;2022-12-18T01:43:53;99561.66;;;-3.24;68.50
19259;BME280;9763;48.780;9.212;2022-12-18T01:47:24;99562.53;;;-3.27;68.89
19259;BME280;9763;48.780;9.212;2022-12-18T01:50:50;99571.06;;;-3.20;68.87
19259;BME280;9763;48.780;9.212;2022-12-18T01:54:13;99571.09;;;-3.17;68.72
19259;BME280;9763;48.780;9.212;2022-12-18T01:57:39;99569.41;;;-3.17;68.25
19259;BME280;9763;48.780;9.212;2022-12-18T02:01:04;99565.16;;;-3.16;68.21
19259;BME280;9763;48.780;9.212;2022-12-18T02:04:28;99562.63;;;-3.16;67.95
19259;BME280;9763;48.780;9.212;2022-12-18T02:08:06;99554.91;;;-3.19;68.23
19259;BME280;9763;48.780;9.212;2022-12-18T02:11:46;99552.38;;;-3.18;68.44
19259;BME280;9763;48.780;9.212;2022-12-18T02:15:21;99556.66;;;-3.12;68.36
19259;BME280;9763;48.780;9.212;2022-12-18T02:18:56;99555.84;;;-3.10;68.46
19259;BME280;9763;48.780;9.212;2022-12-18T02:22:29;99560.16;;;-3.04;68.52
19259;BME280;9763;48.780;9.212;2022-12-18T02:26:18;99564.47;;;-2.96;68.54
19259;BME280;9763;48.780;9.212;2022-12-18T02:29:50;99559.41;;;-2.91;68.71
19259;BME280;9763;48.780;9.212;2022-12-18T02:33:22;99569.63;;;-2.88;68.40
19259;BME280;9763;48.780;9.212;2022-12-18T02:36:49;99567.97;;;-2.84;68.64
19259;BME280;9763;48.780;9.212;2022-12-18T02:40:17;99580.75;;;-2.83;68.48
19259;BME280;9763;48.780;9.212;2022-12-18T02:43:47;99581.56;;;-2.87;68.51
19259;BME280;9763;48.780;9.212;2022-12-18T02:47:18;99584.09;;;-2.92;68.50
19259;BME280;9763;48.780;9.212;2022-12-18T02:50:54;99579.78;;;-2.96;68.43
19259;BME280;9763;48.780;9.212;2022-12-18T02:54:46;99590.03;;;-2.94;68.28
19259;BME280;9763;48.780;9.212;2022-12-18T02:58:19;99592.56;;;-2.96;68.36
19259;BME280;9763;48.780;9.212;2022-12-18T03:01:55;99587.44;;;-2.96;68.83
19259;BME280;9763;48.780;9.212;2022-12-18T03:05:27;99586.59;;;-2.96;68.29
19259;BME280;9763;48.780;9.212;2022-12-18T03:08:59;99573.00;;;-2.94;68.24
19259;BME280;9763;48.780;9.212;2022-12-18T03:12:31;99572.16;;;-2.94;68.60
19259;BME280;9763;48.780;9.212;2022-12-18T03:15:57;99582.34;;;-2.96;68.36
19259;BME280;9763;48.780;9.212;2022-12-18T03:19:28;99595.09;;;-2.97;68.59
19259;BME280;9763;48.780;9.212;2022-12-18T03:23:02;99599.31;;;-3.01;68.23
19259;BME280;9763;48.780;9.212;2022-12-18T03:26:29;99600.16;;;-3.03;68.42
19259;BME280;9763;48.780;9.212;2022-12-18T03:30:03;99607.81;;;-3.05;68.34
19259;BME280;9763;48.780;9.212;2022-12-18T03:33:38;99605.25;;;-3.05;68.21
19259;BME280;9763;48.780;9.212;2022-12-18T03:37:06;99610.31;;;-3.08;68.23
19259;BME280;9763;48.780;9.212;2022-12-18T03:40:39;99612.88;;;-3.08;68.38
19259;BME280;9763;48.780;9.212;2022-12-18T03:44:14;99604.31;;;-3.14;67.99
19259;BME280;9763;48.780;9.212;2022-12-18T03:47:55;99599.19;;;-3.16;67.80
19259;BME280;9763;48.780;9.212;2022-12-18T03:51:36;99598.31;;;-3.19;68.21
19259;BME280;9763;48.780;9.212;2022-12-18T03:55:07;99603.41;;;-3.21;68.08
19259;BME280;9763;48.780;9.212;2022-12-18T03:58:34;99601.66;;;-3.27;67.98
19259;BME280;9763;48.780;9.212;2022-12-18T04:02:17;99611.88;;;-3.27;67.88
19259;BME280;9763;48.780;9.212;2022-12-18T04:05:43;99601.63;;;-3.30;68.03
19259;BME280;9763;48.780;9.212;2022-12-18T04:09:09;99598.19;;;-3.33;67.79
19259;BME280;9763;48.780;9.212;2022-12-18T04:12:38;99590.47;;;-3.38;67.92
19259;BME280;9763;48.780;9.212;2022-12-18T04:16:06;99581.09;;;-3.42;67.82
19259;BME280;9763;48.780;9.212;2022-12-18T04:19:32;99593.88;;;-3.37;68.11
19259;BME280;9763;48.780;9.212;2022-12-18T04:22:57;99596.44;;;-3.37;68.06
19259;BME280;9763;48.780;9.212;2022-12-18T04:26:22;99588.81;;;-3.34;68.35
19259;BME280;9763;48.780;9.212;2022-12-18T04:30:01;99603.25;;;-3.35;68.34
19259;BME280;9763;48.780;9.212;2022-12-18T04:33:25;99612.59;;;-3.37;68.49
19259;BME280;9763;48.780;9.212;2022-12-18T04:36:49;99627.91;;;-3.37;68.60
19259;BME280;9763;48.780;9.212;2022-12-18T04:40:13;99621.94;;;-3.40;68.81
19259;BME280;9763;48.780;9.212;2022-12-18T04:43:40;99618.53;;;-3.41;68.63
19259;BME280;9763;48.780;9.212;2022-12-18T04:47:05;99626.97;;;-3.45;68.42
19259;BME280;9763;48.780;9.212;2022-12-18T04:50:30;99609.03;;;-3.54;68.63
19259;BME280;9763;48.780;9.212;2022-12-18T04:53:54;99591.88;;;-3.69;68.98
19259;BME280;9763;48.780;9.212;2022-12-18T04:57:17;99590.22;;;-3.62;68.79
19259;BME280;9763;48.780;9.212;2022-12-18T05:00:41;99574.88;;;-3.67;68.80
19259;BME280;9763;48.780;9.212;2022-12-18T05:04:06;99575.72;;;-3.68;68.69
19259;BME280;9763;48.780;9.212;2022-12-18T05:07:30;99599.66;;;-3.56;69.07
19259;BME280;9763;48.780;9.212;2022-12-18T05:10:59;99598.75;;;-3.58;69.11
19259;BME280;9763;48.780;9.212;2022-12-18T05:14:23;99595.38;;;-3.57;69.10
19259;BME280;9763;48.780;9.212;2022-12-18T05:17:46;99597.06;;;-3.58;68.72
19259;BME280;9763;48.780;9.212;2022-12-18T05:21:11;99600.47;;;-3.59;68.86
19259;BME280;9763;48.780;9.212;2022-12-18T05:24:35;99607.28;;;-3.58;68.64
19259;BME280;9763;48.780;9.212;2022-12-18T05:27:58;99631.94;;;-3.58;68.61
19259;BME280;9763;48.780;9.212;2022-12-18T05:31:21;99627.69;;;-3.58;68.59
19259;BME280;9763;48.780;9.212;2022-12-18T05:34:45;99619.19;;;-3.58;68.55
19259;BME280;9763;48.780;9.212;2022-12-18T05:38:10;99621.72;;;-3.58;68.26
19259;BME280;9763;48.780;9.212;2022-12-18T05:41:34;99628.53;;;-3.59;68.16
19259;BME280;9763;48.780;9.212;2022-12-18T05:44:57;99625.97;;;-3.59;67.91
19259;BME280;9763;48.780;9.212;2022-12-18T05:48:21;99626.81;;;-3.58;67.99
19259;BME280;9763;48.780;9.212;2022-12-18T05:51:45;99614.03;;;-3.63;68.26
19259;BME280;9763;48.780;9.212;2022-12-18T05:55:10;99610.63;;;-3.65;67.87
19259;BME280;9763;48.780;9.212;2022-12-18T05:58:34;99608.94;;;-3.63;67.58
19259;BME280;9763;48.780;9.212;2022-12-18T06:01:57;99615.72;;;-3.64;67.87
19259;BME280;9763;48.780;9.212;2022-12-18T06:05:21;99619.94;;;-3.67;67.63
19259;BME280;9763;48.780;9.212;2022-12-18T06:08:45;99619.00;;;-3.72;67.35
19259;BME280;9763;48.780;9.212;2022-12-18T06:12:11;99618.94;;;-3.80;67.39
19259;BME280;9763;48.780;9.212;2022-12-18T06:15:36;99623.13;;;-3.83;67.38
19259;BME280;9763;48.780;9.212;2022-12-18T06:19:05;99631.53;;;-3.92;67.41
19259;BME280;9763;48.780;9.212;2022-12-18T06:22:30;99620.34;;;-4.03;67.56
19259;BME280;9763;48.780;9.212;2022-12-18T06:25:55;99618.72;;;-4.00;67.29
19259;BME280;9763;48.780;9.212;2022-12-18T06:29:20;99630.59;;;-4.00;67.06
19259;BME280;9763;48.780;9.212;2022-12-18T06:32:43;99626.25;;;-4.06;67.24
19259;BME280;9763;48.780;9.212;2022-12-18T06:36:12;99638.97;;;-4.07;67.17
19259;BME280;9763;48.780;9.212;2022-12-18T06:39:36;99638.94;;;-4.10;67.23
19259;BME280;9763;48.780;9.212;2022-12-18T06:42:59;99651.69;;;-4.10;67.12
19259;BME280;9763;48.780;9.212;2022-12-18T06:46:25;99637.16;;;-4.17;67.25
19259;BME280;9763;48.780;9.212;2022-12-18T06:49:49;99648.25;;;-4.14;67.10
19259;BME280;9763;48.780;9.212;2022-12-18T06:53:13;99640.59;;;-4.14;67.38
19259;BME280;9763;48.780;9.212;2022-12-18T06:56:36;99637.19;;;-4.14;67.42
19259;BME280;9763;48.780;9.212;2022-12-18T07:00:00;99636.38;;;-4.13;67.46
19259;BME280;9763;48.780;9.212;2022-12-18T07:03:26;99658.47;;;-4.12;67.58
19259;BME280;9763;48.780;9.212;2022-12-18T07:06:49;99655.94;;;-4.11;67.20
19259;BME280;9763;48.780;9.212;2022-12-18T07:10:13;99661.88;;;-4.10;67.32
19259;BME280;9763;48.780;9.212;2022-12-18T07:13:36;99657.53;;;-4.17;66.89
19259;BME280;9763;48.780;9.212;2022-12-18T07:17:01;99671.22;;;-4.12;67.16
19259;BME280;9763;48.780;9.212;2022-12-18T07:20:25;99665.22;;;-4.16;67.08
19259;BME280;9763;48.780;9.212;2022-12-18T07:23:49;99672.91;;;-4.10;67.17
19259;BME280;9763;48.780;9.212;2022-12-18T07:27:13;99681.44;;;-4.08;67.17
19259;BME280;9763;48.780;9.212;2022-12-18T07:30:37;99674.63;;;-4.09;67.33
19259;BME280;9763;48.780;9.212;2022-12-18T07:34:01;99677.19;;;-4.09;67.36
19259;BME280;9763;48.780;9.212;2022-12-18T07:37:26;99684.03;;;-4.06;67.41
19259;BME280;9763;48.780;9.212;2022-12-18T07:40:50;99683.22;;;-4.04;67.46
19259;BME280;9763;48.780;9.212;2022-12-18T07:44:13;99690.06;;;-4.01;67.48
19259;BME280;9763;48.780;9.212;2022-12-18T07:47:37;99684.06;;;-4.03;67.48
19259;BME280;9763;48.780;9.212;2022-12-18T07:51:05;99685.00;;;-3.96;67.30
19259;BME280;9763;48.780;9.212;2022-12-18T07:54:30;99687.56;;;-3.95;67.32
19259;BME280;9763;48.780;9.212;2022-12-18T07:57:54;99691.88;;;-3.92;67.60
19259;BME280;9763;48.780;9.212;2022-12-18T08:01:22;99696.16;;;-3.90;67.49
19259;BME280;9763;48.780;9.212;2022-12-18T08:04:46;99689.38;;;-3.86;67.49
19259;BME280;9763;48.780;9.212;2022-12-18T08:08:10;99687.78;;;-3.80;67.88
19259;BME280;9763;48.780;9.212;2022-12-18T08:11:35;99695.50;;;-3.74;67.62
19259;BME280;9763;48.780;9.212;2022-12-18T08:14:58;99698.94;;;-3.70;67.98
19259;BME280;9763;48.780;9.212;2022-12-18T08:18:22;99691.41;;;-3.63;67.68
19259;BME280;9763;48.780;9.212;2022-12-18T08:21:45;99688.84;;;-3.61;67.52
19259;BME280;9763;48.780;9.212;2022-12-18T08:25:09;99693.16;;;-3.58;67.50
19259;BME280;9763;48.780;9.212;2022-12-18T08:28:34;99683.00;;;-3.55;68.12
19259;BME280;9763;48.780;9.212;2022-12-18T08:31:58;99682.22;;;-3.48;68.56
19259;BME280;9763;48.780;9.212;2022-12-18T08:35:22;99683.16;;;-3.40;68.69
19259;BME280;9763;48.780;9.212;2022-12-18T08:38:46;99688.38;;;-3.31;69.07
19259;BME280;9763;48.780;9.212;2022-12-18T08:42:09;99691.88;;;-3.21;69.30
19259;BME280;9763;48.780;9.212;2022-12-18T08:45:52;99690.25;;;-3.15;69.47
19259;BME280;9763;48.780;9.212;2022-12-18T08:49:15;99691.09;;;-3.13;69.24
19259;BME280;9763;48.780;9.212;2022-12-18T08:52:39;99692.88;;;-3.07;69.28
19259;BME280;9763;48.780;9.212;2022-12-18T08:56:03;99680.16;;;-3.03;69.13
19259;BME280;9763;48.780;9.212;2022-12-18T08:59:26;99684.47;;;-2.96;69.28
19259;BME280;9763;48.780;9.212;2022-12-18T09:02:51;99676.00;;;-2.93;68.92
19259;BME280;9763;48.780;9.212;2022-12-18T09:06:16;99673.47;;;-2.92;68.91
19259;BME280;9763;48.780;9.212;2022-12-18T09:09:40;99671.75;;;-2.91;68.79
19259;BME280;9763;48.780;9.212;2022-12-18T09:13:04;99670.88;;;-2.95;68.92
19259;BME280;9763;48.780;9.212;2022-12-18T09:16:29;99669.97;;;-2.98;68.64
19259;BME280;9763;48.780;9.212;2022-12-18T09:19:55;99671.66;;;-3.00;68.66
19259;BME280;9763;48.780;9.212;2022-12-18T09:23:19;99673.34;;;-3.01;69.03
19259;BME280;9763;48.780;9.212;2022-12-18T09:26:43;99653.75;;;-3.05;68.92
19259;BME280;9763;48.780;9.212;2022-12-18T09:30:10;99665.69;;;-3.01;68.92
19259;BME280;9763;48.780;9.212;2022-12-18T09:33:34;99658.06;;;-2.99;69.18
19259;BME280;9763;48.780;9.212;2022-12-18T09:36:59;99650.38;;;-3.01;69.42
19259;BME280;9763;48.780;9.212;2022-12-18T09:40:26;99660.69;;;-2.93;69.56
19259;BME280;9763;48.780;9.212;2022-12-18T09:43:57;99660.72;;;-2.87;69.55
19259;BME280;9763;48.780;9.212;2022-12-18T09:47:28;99656.53;;;-2.80;69.52
19259;BME280;9763;48.780;9.212;2022-12-18T09:50:59;99653.13;;;-2.79;69.63
19259;BME280;9763;48.780;9.212;2022-12-18T09:54:35;99619.00;;;-2.87;69.22
19259;BME280;9763;48.780;9.212;2022-12-18T09:58:13;99644.63;;;-2.75;69.68
19259;BME280;9763;48.780;9.212;2022-12-18T10:01:38;99639.56;;;-2.71;70.00
19259;BME280;9763;48.780;9.212;2022-12-18T10:05:10;99648.16;;;-2.66;70.03
19259;BME280;9763;48.780;9.212;2022-12-18T10:08:45;99640.53;;;-2.57;70.40
19259;BME280;9763;48.780;9.212;2022-12-18T10:12:21;99645.72;;;-2.46;70.34
19259;BME280;9763;48.780;9.212;2022-12-18T10:16:09;99651.75;;;-2.35;70.41
19259;BME280;9763;48.780;9.212;2022-12-18T10:19:40;99647.59;;;-2.22;70.88
19259;BME280;9763;48.780;9.212;2022-12-18T10:23:18;99652.75;;;-2.13;70.72
19259;BME280;9763;48.780;9.212;2022-12-18T10:26:52;99662.19;;;-2.01;70.71
19259;BME280;9763;48.780;9.212;2022-12-18T10:30:22;99666.50;;;-1.94;70.84
19259;BME280;9763;48.780;9.212;2022-12-18T10:33:46;99652.91;;;-1.86;70.97
19259;BME280;9763;48.780;9.212;2022-12-18T10:37:16;99641.00;;;-1.76;71.68
19259;BME280;9763;48.780;9.212;2022-12-18T10:40:50;99650.59;;;-0.96;73.91
19259;BME280;9763;48.780;9.212;2022-12-18T10:44:19;99649.41;;;0.63;77.96
19259;BME280;9763;48.780;9.212;2022-12-18T10:47:47;99634.38;;;2.20;76.66
19259;BME280;9763;48.780;9.212;2022-12-18T10:51:21;99640.41;;;3.41;75.05
19259;BME280;9763;48.780;9.212;2022-12-18T10:54:51;99625.88;;;4.31;73.38
19259;BME280;9763;48.780;9.212;2022-12-18T10:58:24;99639.06;;;4.97;71.53
19259;BME280;9763;48.780;9.212;2022-12-18T11:01:51;99634.50;;;5.44;70.09
19259;BME280;9763;48.780;9.212;2022-12-18T11:05:28;99633.97;;;5.31;68.09
19259;BME280;9763;48.780;9.212;2022-12-18T11:08:59;99633.19;;;4.91;67.34
19259;BME280;9763;48.780;9.212;2022-12-18T11:12:29;99623.00;;;4.45;66.71
19259;BME280;9763;48.780;9.212;2022-12-18T11:15:53;99615.13;;;4.08;67.04
19259;BME280;9763;48.780;9.212;2022-12-18T11:19:36;99614.16;;;3.67;67.27
19259;BME280;9763;48.780;9.212;2022-12-18T11:23:05;99605.25;;;3.37;67.97
19259;BME280;9763;48.780;9.212;2022-12-18T11:26:34;99595.41;;;3.07;68.71
19259;BME280;9763;48.780;9.212;2022-12-18T11:30:09;99595.81;;;2.79;69.16
19259;BME280;9763;48.780;9.212;2022-12-18T11:33:48;99593.63;;;2.53;69.19
19259;BME280;9763;48.780;9.212;2022-12-18T11:37:34;99599.97;;;2.28;70.65
19259;BME280;9763;48.780;9.212;2022-12-18T11:41:07;99591.59;;;2.11;70.80
19259;BME280;9763;48.780;9.212;2022-12-18T11:44:46;99595.19;;;1.96;70.95
19259;BME280;9763;48.780;9.212;2022-12-18T11:48:17;99590.16;;;1.86;71.54
19259;BME280;9763;48.780;9.212;2022-12-18T11:51:51;99582.50;;;1.81;71.64
19259;BME280;9763;48.780;9.212;2022-12-18T11:55:25;99587.69;;;1.76;72.07
19259;BME280;9763;48.780;9.212;2022-12-18T11:59:04;99586.00;;;1.74;72.13
19259;BME280;9763;48.780;9.212;2022-12-18T12:03:02;99582.56;;;1.73;72.75
19259;BME280;9763;48.780;9.212;2022-12-18T12:06:43;99571.44;;;1.71;73.15
19259;BME280;9763;48.780;9.212;2022-12-18T12:10:32;99563.78;;;1.68;72.45
19259;BME280;9763;48.780;9.212;2022-12-18T12:14:24;99558.66;;;1.64;72.85
19259;BME280;9763;48.780;9.212;2022-12-18T12:18:00;99551.84;;;1.58;73.14
19259;BME280;9763;48.780;9.212;2022-12-18T12:21:39;99559.56;;;1.60;73.64
19259;BME280;9763;48.780;9.212;2022-12-18T12:25:19;99551.81;;;1.61;73.71
19259;BME280;9763;48.780;9.212;2022-12-18T12:29:03;99555.22;;;1.65;73.48
19259;BME280;9763;48.780;9.212;2022-12-18T12:32:49;99559.50;;;1.67;73.33
19259;BME280;9763;48.780;9.212;2022-12-18T12:36:26;99557.66;;;1.75;73.83
19259;BME280;9763;48.780;9.212;2022-12-18T12:39:55;99545.63;;;1.80;73.75
19259;BME280;9763;48.780;9.212;2022-12-18T12:43:34;99558.38;;;1.88;73.88
19259;BME280;9763;48.780;9.212;2022-12-18T12:47:17;99554.94;;;1.91;73.77
19259;BME280;9763;48.780;9.212;2022-12-18T12:50:44;99555.78;;;1.93;73.85
19259;BME280;9763;48.780;9.212;2022-12-18T12:54:17;99560.91;;;1.93;74.16
19259;BME280;9763;48.780;9.212;2022-12-18T12:57:47;99557.53;;;1.88;74.06
19259;BME280;9763;48.780;9.212;2022-12-18T13:01:28;99568.59;;;1.94;74.52
19259;BME280;9763;48.780;9.212;2022-12-18T13:05:04;99567.69;;;2.01;74.79
19259;BME280;9763;48.780;9.212;2022-12-18T13:08:53;99553.84;;;2.07;74.25
19259;BME280;9763;48.780;9.212;2022-12-18T13:12:18;99562.28;;;2.18;74.27
19259;BME280;9763;48.780;9.212;2022-12-18T13:16:07;99575.94;;;2.26;74.20
19259;BME280;9763;48.780;9.212;2022-12-18T13:19:32;99567.25;;;2.33;74.13
19259;BME280;9763;48.780;9.212;2022-12-18T13:22:58;99567.19;;;2.41;74.43
19259;BME280;9763;48.780;9.212;2022-12-18T13:26:39;99561.09;;;2.45;73.58
19259;BME280;9763;48.780;9.212;2022-12-18T13:30:45;99566.22;;;2.46;73.36
19259;BME280;9763;48.780;9.212;2022-12-18T13:34:16;99552.47;;;2.47;73.27
19259;BME280;9763;48.780;9.212;2022-12-18T13:37:54;99550.75;;;2.48;73.50
19259;BME280;9763;48.780;9.212;2022-12-18T13:41:25;99555.06;;;2.46;73.66
19259;BME280;9763;48.780;9.212;2022-12-18T13:44:49;99532.03;;;2.35;73.23
19259;BME280;9763;48.780;9.212;2022-12-18T13:48:21;99539.69;;;2.41;73.56
19259;BME280;9763;48.780;9.212;2022-12-18T13:51:49;99544.88;;;2.40;73.82
19259;BME280;9763;48.780;9.212;2022-12-18T13:55:18;99548.31;;;2.37;73.77
19259;BME280;9763;48.780;9.212;2022-12-18T13:58:42;99551.78;;;2.36;73.92
19259;BME280;9763;48.780;9.212;2022-12-18T14:02:15;99541.47;;;2.35;73.76
19259;BME280;9763;48.780;9.212;2022-12-18T14:05:44;99544.09;;;2.32;73.68
19259;BME280;9763;48.780;9.212;2022-12-18T14:09:14;99548.41;;;2.30;73.73
19259;BME280;9763;48.780;9.212;2022-12-18T14:12:47;99546.78;;;2.24;73.83
19259;BME280;9763;48.780;9.212;2022-12-18T14:16:25;99548.56;;;2.19;73.70
19259;BME280;9763;48.780;9.212;2022-12-18T14:19:50;99551.22;;;2.14;73.89
19259;BME280;9763;48.780;9.212;2022-12-18T14:23:35;99544.38;;;2.10;73.42
19259;BME280;9763;48.780;9.212;2022-12-18T14:27:20;99549.63;;;2.03;73.89
19259;BME280;9763;48.780;9.212;2022-12-18T14:30:45;99557.41;;;1.97;73.98
19259;BME280;9763;48.780;9.212;2022-12-18T14:34:15;99563.50;;;1.91;73.86
19259;BME280;9763;48.780;9.212;2022-12-18T14:37:39;99555.00;;;1.83;73.60
19259;BME280;9763;48.780;9.212;2022-12-18T14:41:06;99560.22;;;1.77;73.58
19259;BME280;9763;48.780;9.212;2022-12-18T14:44:33;99556.00;;;1.70;73.56
19259;BME280;9763;48.780;9.212;2022-12-18T14:48:21;99547.53;;;1.62;73.76
19259;BME280;9763;48.780;9.212;2022-12-18T14:51:48;99553.63;;;1.53;73.79
19259;BME280;9763;48.780;9.212;2022-12-18T14:55:16;99562.25;;;1.49;73.67
19259;BME280;9763;48.780;9.212;2022-12-18T14:58:45;99562.34;;;1.40;73.92
19259;BME280;9763;48.780;9.212;2022-12-18T15:02:19;99565.78;;;1.36;73.67
19259;BME280;9763;48.780;9.212;2022-12-18T15:05:45;99562.44;;;1.29;73.33
19259;BME280;9763;48.780;9.212;2022-12-18T15:09:22;99566.81;;;1.18;73.68
19259;BME280;9763;48.780;9.212;2022-12-18T15:12:49;99564.28;;;1.12;74.11
19259;BME280;9763;48.780;9.212;2022-12-18T15:16:15;99559.22;;;1.04;73.79
19259;BME280;9763;48.780;9.212;2022-12-18T15:19:42;99556.69;;;0.97;73.74
19259;BME280;9763;48.780;9.212;2022-12-18T15:23:15;99556.78;;;0.89;73.87
19259;BME280;9763;48.780;9.212;2022-12-18T15:26:39;99555.13;;;0.84;74.02
19259;BME280;9763;48.780;9.212;2022-12-18T15:30:20;99544.06;;;0.71;74.18
19259;BME280;9763;48.780;9.212;2022-12-18T15:34:11;99548.34;;;0.72;73.93
19259;BME280;9763;48.780;9.212;2022-12-18T15:37:36;99549.22;;;0.69;74.37
19259;BME280;9763;48.780;9.212;2022-12-18T15:41:02;99556.06;;;0.67;74.50
19259;BME280;9763;48.780;9.212;2022-12-18T15:44:29;99553.53;;;0.64;73.99
19259;BME280;9763;48.780;9.212;2022-12-18T15:47:53;99551.81;;;0.63;74.48
19259;BME280;9763;48.780;9.212;2022-12-18T15:51:21;99546.72;;;0.59;73.87
19259;BME280;9763;48.780;9.212;2022-12-18T15:54:46;99559.56;;;0.57;73.86
19259;BME280;9763;48.780;9.212;2022-12-18T15:58:27;99555.31;;;0.52;74.48
19259;BME280;9763;48.780;9.212;2022-12-18T16:01:52;99559.59;;;0.51;74.19
19259;BME280;9763;48.780;9.212;2022-12-18T16:05:18;99551.09;;;0.48;73.72
19259;BME280;9763;48.780;9.212;2022-12-18T16:08:44;99562.22;;;0.45;73.67
19259;BME280;9763;48.780;9.212;2022-12-18T16:12:17;99556.25;;;0.39;74.10
19259;BME280;9763;48.780;9.212;2022-12-18T16:15:41;99553.69;;;0.40;74.10
19259;BME280;9763;48.780;9.212;2022-12-18T16:19:05;99555.38;;;0.40;74.10
19259;BME280;9763;48.780;9.212;2022-12-18T16:22:30;99557.97;;;0.38;73.98
19259;BME280;9763;48.780;9.212;2022-12-18T16:25:55;99558.81;;;0.39;73.94
19259;BME280;9763;48.780;9.212;2022-12-18T16:29:20;99547.69;;;0.38;73.88
19259;BME280;9763;48.780;9.212;2022-12-18T16:33:15;99549.41;;;0.39;74.10
19259;BME280;9763;48.780;9.212;2022-12-18T16:36:39;99551.97;;;0.39;73.61
19259;BME280;9763;48.780;9.212;2022-12-18T16:40:04;99548.53;;;0.42;73.80
19259;BME280;9763;48.780;9.212;2022-12-18T16:43:32;99545.94;;;0.46;74.27
19259;BME280;9763;48.780;9.212;2022-12-18T16:46:56;99545.94;;;0.48;73.73
19259;BME280;9763;48.780;9.212;2022-12-18T16:50:24;99545.03;;;0.53;74.07
19259;BME280;9763;48.780;9.212;2022-12-18T16:53:47;99549.31;;;0.53;73.88
19259;BME280;9763;48.780;9.212;2022-12-18T16:57:15;99559.56;;;0.56;73.45
19259;BME280;9763;48.780;9.212;2022-12-18T17:00:41;99547.59;;;0.58;73.65
19259;BME280;9763;48.780;9.212;2022-12-18T17:04:05;99542.41;;;0.61;73.14
19259;BME280;9763;48.780;9.212;2022-12-18T17:07:29;99536.41;;;0.62;73.04
19259;BME280;9763;48.780;9.212;2022-12-18T17:10:53;99532.13;;;0.61;73.08
19259;BME280;9763;48.780;9.212;2022-12-18T17:14:20;99532.13;;;0.65;73.48
19259;BME280;9763;48.780;9.212;2022-12-18T17:17:45;99526.09;;;0.68;73.48
19259;BME280;9763;48.780;9.212;2022-12-18T17:21:11;99519.19;;;0.75;73.05
19259;BME280;9763;48.780;9.212;2022-12-18T17:24:35;99520.03;;;0.80;72.95
19259;BME280;9763;48.780;9.212;2022-12-18T17:27:59;99515.69;;;0.86;72.97
19259;BME280;9763;48.780;9.212;2022-12-18T17:31:25;99508.81;;;0.87;73.23
19259;BME280;9763;48.780;9.212;2022-12-18T17:34:50;99513.00;;;0.97;73.29
19259;BME280;9763;48.780;9.212;2022-12-18T17:38:14;99518.13;;;1.01;72.91
19259;BME280;9763;48.780;9.212;2022-12-18T17:41:38;99516.38;;;1.05;72.84
19259;BME280;9763;48.780;9.212;2022-12-18T17:45:01;99520.59;;;1.11;72.86
19259;BME280;9763;48.780;9.212;2022-12-18T17:48:25;99517.16;;;1.13;72.79
19259;BME280;9763;48.780;9.212;2022-12-18T17:51:50;99519.72;;;1.15;72.81
19259;BME280;9763;48.780;9.212;2022-12-18T17:55:15;99529.13;;;1.19;72.98
19259;BME280;9763;48.780;9.212;2022-12-18T17:58:39;99523.13;;;1.20;72.43
19259;BME280;9763;48.780;9.212;2022-12-18T18:02:03;99518.78;;;1.22;72.25
19259;BME280;9763;48.780;9.212;2022-12-18T18:05:27;99514.50;;;1.22;72.38
19259;BME280;9763;48.780;9.212;2022-12-18T18:08:53;99512.81;;;1.20;72.93
19259;BME280;9763;48.780;9.212;2022-12-18T18:12:17;99529.97;;;1.19;72.72
19259;BME280;9763;48.780;9.212;2022-12-18T18:15:59;99512.84;;;1.18;72.80
19259;BME280;9763;48.780;9.212;2022-12-18T18:19:24;99508.56;;;1.17;72.45
19259;BME280;9763;48.780;9.212;2022-12-18T18:22:48;99506.00;;;1.16;72.48
19259;BME280;9763;48.780;9.212;2022-12-18T18:26:14;99503.44;;;1.16;72.82
19259;BME280;9763;48.780;9.212;2022-12-18T18:29:38;99512.00;;;1.15;72.77
19259;BME280;9763;48.780;9.212;2022-12-18T18:33:01;99508.59;;;1.14;72.75
19259;BME280;9763;48.780;9.212;2022-12-18T18:36:33;99498.31;;;1.13;72.97
19259;BME280;9763;48.780;9.212;2022-12-18T18:39:56;99481.19;;;1.12;72.83
19259;BME280;9763;48.780;9.212;2022-12-18T18:43:24;99494.84;;;1.17;72.47
19259;BME280;9763;48.780;9.212;2022-12-18T18:46:47;99483.69;;;1.19;72.42